Aérodrome :
LOGIN :

S'inscrire | Disclaimer

   EN    FR    IT 

 










Légende :    VFR   VFR Marginal   IFR   IFR Intensif   IFR Très Intensif
Visi : 
Plafond : 
>= 8 km
>= 3000ft
5 à 8 km
1000 à 3000 ft
1500m à 5 km
500 à 1000 ft
800 à 1500m
200 à 500 ft
< 800m
< 200 ft
Symboles :   Orages  Brouillard  Fortes neiges  Fortes précipitations  Vent > 20 kt
SIGMETs :   Divers  Orages  Givrage  Turbulence  Onde Orograph.  Cendres Volcan.






- Altitude de l'aérodrome : 247 ft
- Code IATA : BLL


EKBI - Billund

DERNIER METAR :
  • 232050Z AUTO 20009KT 9000 FEW008/// 07/06 Q0998

METARs EXPIRÉS :
  • 232020Z AUTO 20010KT 180V240 9000 BKN008/// BKN042/// 07/06 Q0999
  • 231950Z AUTO 20008KT 8000 SCT007/// BKN039/// BKN061/// 07/06 Q0999
  • 231920Z AUTO 22010KT 8000 BKN007/// 08/06 Q0999
  • 231850Z AUTO 22010KT 8000 BKN007/// 07/06 Q0999
  • 231820Z AUTO 22010KT 8000 BKN008/// 07/06 Q0999

TAF AMD TAF EKBI
Valide du 23 à 18h jusqu'au 24 à 18h UTC


231829Z 2318/2418 23012KT 9999 FEW015
TEMPO 2318/2401 BKN005
PROB40 2318/2401 4000 BR
TEMPO 2401/2410 2000 RADZ BR BKN004
BECMG 2402/2405 17012KT
BECMG 2407/2410 24018G30KT
PROB40 2410/2413 2500 -RADZ BR BKN004
PROB40 2413/2418 BKN014



MET'MAP, la Météo Aéronautique d'un coup d'oeil ! - Copyright ORBIFLY Décembre 2007 - Disclaimer

ORBIFLY MET'MAP TEAM :

Programmation & Développement : Alexandra Zaïnal
Sur une idée originale de : Baudouin d'Aumeries
Soutien technique & logistique : Manuel Goepfert
Assistance : Marc-Olivier Méhu




SOURCES & CREDITS :

   NOAA